This is the latest recevied weather packets stored in our database for station/object ENBN. If no packets are shown the sender has not sent any weather packets the latest 10 day(s).
| Time | Temp. | Humidity | Pressure | Rain* | Wind** | Luminosity | Snow |
|---|---|---|---|---|---|---|---|
| 1777989787 | 5° C | 65% | 1004 hPa | - | - | - | - |
| 1777987987 | 5.56° C | 60% | 1004 hPa | - | - | - | - |
| 1777986187 | 5.56° C | 65% | 1005 hPa | - | - | - | - |
| 1777984386 | 5° C | 70% | 1004 hPa | - | - | - | - |
| 1777982586 | 5.56° C | 60% | 1004 hPa | - | - | - | - |
| 1777980787 | 5° C | 70% | 1004 hPa | - | - | - | - |
| 1777978987 | 5° C | 70% | 1004 hPa | - | - | - | - |
| 1777977186 | 5° C | 70% | 1004 hPa | - | - | - | - |
| 1777975387 | 5° C | 70% | 1004 hPa | - | - | - | - |
| 1777973586 | 5° C | 65% | 1003 hPa | - | - | - | - |
| 1777971787 | 5° C | 70% | 1003 hPa | - | - | - | - |
| 1777969986 | 2.78° C | 74% | 1003 hPa | - | - | - | - |
| 1777968187 | 2.78° C | 74% | 1003 hPa | - | - | - | - |
| 1777966386 | 2.78° C | 80% | 1003 hPa | - | - | - | - |
| 1777964587 | 3.89° C | 75% | 1003 hPa | - | - | - | - |
| 1777962786 | 5° C | 75% | 1002 hPa | - | - | - | - |
| 1777960986 | 3.89° C | 80% | 1002 hPa | - | - | - | - |
| 1777959189 | 1.67° C | 86% | 1002 hPa | - | - | - | - |
| 1777957386 | 0.56° C | 93% | 1002 hPa | - | - | - | - |
| 1777955586 | 2.78° C | 80% | 1002 hPa | - | - | - | - |
| 1777953786 | 1.67° C | 86% | 1002 hPa | - | - | - | - |
| 1777951986 | 0.56° C | 93% | 1002 hPa | - | - | - | - |
| 1777950186 | 0.56° C | 93% | 1002 hPa | - | - | - | - |
| 1777948386 | 0.56° C | 93% | 1002 hPa | - | - | - | - |
| 1777946586 | 0.56° C | 93% | 1002 hPa | - | - | - | - |
* Rain since midnight (hover to see other rain measurements)
** Current wind speed in m/s (hover to see current wind gust speed)